Flight Track Log - Related Links

Times and Time Zones

All times are in EDT time to prevent confusion due to time zone crossing. See the UAL4543 flight status page for this flight to view local times or setup timezone preferences in your user account.

Time Position Orientation Groundspeed Altitude Reporting Facility
EDT Latitude Longitude Course Direction KTS MPH feet Rate Location/Type
Sat 08:01:57 PM 40.6667 -74.1833 194° South 179 206 400  Level New York TRACON
Sat 08:02:57 PM 40.6167 -74.2000 194° South 227 261 2,500 2,400 Climbing New York TRACON
Sat 08:03:57 PM 40.6000 -74.2667 252° West 267 307 5,200 2,550 Climbing New York TRACON
Sat 08:04:57 PM 40.6167 -74.3500 285° West 273 314 7,600 1,957 Climbing New York TRACON
Sat 08:07:04 PM 40.6733 -74.5717 289° West 296 341 11,300 1,532 Climbing New York Center
Sat 08:08:05 PM 40.7133 -74.6861 295° West 340 391 12,400 1,109 Climbing New York Center
Sat 08:09:03 PM 40.7633 -74.8067 299° West 357 411 13,500 1,160 Climbing New York Center
Sat 08:10:04 PM 40.8175 -74.9278 301° West 375 432 14,700 1,180 Climbing New York Center
Sat 08:11:05 PM 40.8714 -75.0519 300° West 389 448 15,900 1,160 Climbing New York Center
Sat 08:12:03 PM 40.9047 -75.1719 290° West 384 442 17,000 1,017 Climbing New York Center
Sat 08:13:03 PM 40.8869 -75.3053 260° West 371 427 17,900 1,041 Climbing New York Center
Sat 08:14:04 PM 40.8542 -75.4542 254° West 376 433 19,100 1,171 Climbing New York Center
Sat 08:15:06 PM 40.8236 -75.5919 254° West 382 440 20,300 1,210 Climbing New York Center
Sat 08:16:03 PM 40.7889 -75.7264 251° West 388 447 21,500 1,231 Climbing New York Center
Sat 08:17:03 PM 40.7583 -75.8586 253° West 388 447 22,700 1,131 Climbing New York Center
Sat 08:18:05 PM 40.7256 -75.9903 252° West 388 447 23,800 1,050 Climbing New York Center
Sat 08:19:03 PM 40.6922 -76.1275 252° West 393 452 24,800 1,008 Climbing New York Center
Sat 08:20:04 PM 40.6692 -76.2650 258° West 393 452 25,800 984 Climbing New York Center
Sat 08:21:05 PM 40.6897 -76.4064 281° West 384 442 26,800 992 Climbing New York Center
Sat 08:22:05 PM 40.7119 -76.5506 282° West 390 449 27,800 900 Climbing New York Center
Sat 08:23:05 PM 40.7264 -76.6778 279° West 390 449 28,600 915 Climbing New York Center
Sat 08:24:03 PM 40.7483 -76.8194 282° West 395 455 29,600 1,017 Climbing New York Center
Sat 08:25:03 PM 40.7722 -76.9669 282° West 400 460 30,600 1,000 Climbing New York Center
Sat 08:26:03 PM 40.7914 -77.1139 280° West 400 460 31,600 950 Climbing New York Center
Sat 08:27:03 PM 40.8147 -77.2586 282° West 400 460 32,500 1,041 Climbing New York Center
Sat 08:28:04 PM 40.8375 -77.4144 281° West 395 455 33,700 805 Climbing New York Center
Sat 08:31:24 PM 40.9031 -77.9072 280° West 410 472 36,000 531 Climbing Cleveland Center
Sat 08:32:24 PM 40.9233 -78.0658 280° West 417 480 36,000  Level Cleveland Center
Sat 08:33:24 PM 40.9433 -78.2244 280° West 431 496 36,000  Level Cleveland Center
Sat 08:34:24 PM 40.9675 -78.3914 281° West 450 518 36,000  Level Cleveland Center
Sat 08:35:24 PM 40.9872 -78.5586 279° West 462 532 36,000  Level Cleveland Center
Sat 08:36:24 PM 41.0069 -78.7231 279° West 462 532 36,000  Level Cleveland Center
Sat 08:37:24 PM 41.0261 -78.8878 279° West 462 532 36,000  Level Cleveland Center
Sat 08:38:24 PM 41.0450 -79.0469 279° West 456 525 36,000  Level Cleveland Center
Sat 08:39:24 PM 41.0617 -79.2089 278° West 456 525 36,000  Level Cleveland Center
Sat 08:40:24 PM 41.0822 -79.3711 280° West 456 525 36,000  Level Cleveland Center
Sat 08:41:24 PM 41.1006 -79.5389 278° West 456 525 36,000  Level Cleveland Center
Sat 08:42:24 PM 41.1186 -79.7067 278° West 456 525 36,000  Level Cleveland Center
Sat 08:43:24 PM 41.1322 -79.8581 277° West 467 537 36,000  Level Cleveland Center
Sat 08:44:24 PM 41.1542 -80.0372 279° West 461 531 36,000  Level Cleveland Center
Sat 08:45:24 PM 41.1714 -80.2053 278° West 461 531 36,000  Level Cleveland Center
Sat 08:46:24 PM 41.1886 -80.3761 278° West 468 539 36,000  Level Cleveland Center
Sat 08:47:24 PM 41.2053 -80.5472 277° West 468 539 36,000  Level Cleveland Center
Sat 08:48:24 PM 41.2219 -80.7183 277° West 463 533 36,000  Level Cleveland Center
Sat 08:49:24 PM 41.2383 -80.8897 277° West 468 539 36,000  Level Cleveland Center
Sat 08:50:24 PM 41.2544 -81.0581 277° West 468 539 36,000  Level Cleveland Center
Sat 08:51:24 PM 41.2722 -81.2297 278° West 468 539 36,000  Level Cleveland Center
Sat 08:52:24 PM 41.2878 -81.4011 277° West 463 533 36,000  Level Cleveland Center
Sat 08:53:24 PM 41.3072 -81.5756 278° West 468 539 36,000  Level Cleveland Center
Sat 08:54:24 PM 41.3244 -81.7472 278° West 468 539 36,000  Level Cleveland Center
Sat 08:55:24 PM 41.3392 -81.9189 277° West 468 539 36,000  Level Cleveland Center
Sat 08:56:24 PM 41.3558 -82.0908 277° West 468 539 36,000  Level Cleveland Center
Sat 08:57:24 PM 41.3639 -82.2681 274° West 484 557 36,000  Level Cleveland Center
Sat 08:58:24 PM 41.3736 -82.4397 274° West 477 549 36,000  Level Cleveland Center
Sat 08:59:24 PM 41.3833 -82.6117 274° West 477 549 36,000  Level Cleveland Center
Sat 09:00:24 PM 41.3925 -82.7864 274° West 477 549 36,000  Level Cleveland Center
Sat 09:01:24 PM 41.4017 -82.9611 274° West 477 549 36,000  Level Cleveland Center
Sat 09:02:24 PM 41.4106 -83.1192 274° West 483 556 36,000  Level Cleveland Center
Sat 09:03:24 PM 41.4172 -83.2886 273° West 477 549 36,000  Level Cleveland Center
Sat 09:04:24 PM 41.4256 -83.4606 274° West 471 542 36,000  Level Cleveland Center
Sat 09:05:24 PM 41.4336 -83.6325 274° West 471 542 36,000  Level Cleveland Center
Sat 09:06:24 PM 41.4414 -83.8047 274° West 471 542 36,000  Level Cleveland Center
Sat 09:07:04 PM 41.4506 -83.9264 276° West 469 540 36,000  Level Chicago Center
Sat 09:08:05 PM 41.4583 -84.0972 274° West 465 535 36,000  Level Chicago Center
Sat 09:09:07 PM 41.4658 -84.2675 273° West 463 533 36,000  Level Chicago Center
Sat 09:10:08 PM 41.4722 -84.4394 273° West 466 536 36,000  Level Chicago Center
Sat 09:11:10 PM 41.4789 -84.6108 273° West 463 533 36,000  Level Chicago Center
Sat 09:12:11 PM 41.4853 -84.7850 273° West 470 541 36,000  Level Chicago Center
Sat 09:13:13 PM 41.4936 -84.9942 273° West 471 542 36,000  Level Chicago Center
Sat 09:14:14 PM 41.4989 -85.1708 272° West 474 545 36,000  Level Chicago Center
Sat 09:15:16 PM 41.5019 -85.3525 271° West 481 554 36,000  Level Chicago Center
Sat 09:16:17 PM 41.5089 -85.5389 273° West 482 555 36,000  Level Chicago Center
Sat 09:17:19 PM 41.5158 -85.7175 273° West 478 550 36,000  Level Chicago Center
Sat 09:18:20 PM 41.5203 -85.8983 272° West 483 556 36,000  Level Chicago Center
Sat 09:19:22 PM 41.5256 -86.0794 272° West 487 560 36,000  Level Chicago Center
Sat 09:20:23 PM 41.5283 -86.2603 271° West 485 558 36,000  Level Chicago Center
Sat 09:21:24 PM 41.5311 -86.4419 271° West 490 564 36,000  Level Chicago Center
Sat 09:22:26 PM 41.5336 -86.6256 271° West 494 568 36,000  Level Chicago Center
Sat 09:23:27 PM 41.5364 -86.8233 271° West 492 566 36,000  Level Chicago Center
Sat 09:24:29 PM 41.5381 -87.0067 271° West 497 572 36,000  Level Chicago Center
Sat 09:25:30 PM 41.5408 -87.1925 271° West 503 579 36,000  Level Chicago Center
Sat 09:26:31 PM 41.5428 -87.3753 271° West 498 573 36,000  Level Chicago Center
Sat 09:27:33 PM 41.5444 -87.5936 271° West 494 568 36,000  Level Chicago Center
Sat 09:28:34 PM 41.5461 -87.7775 271° West 503 579 36,000  Level Chicago Center
Sat 09:29:35 PM 41.5467 -87.9622 270° West 509 586 36,000  Level Chicago Center
Sat 09:30:37 PM 41.5472 -88.1453 270° West 516 594 36,000  Level Chicago Center
Sat 09:31:38 PM 41.5467 -88.3331 270° West 518 596 36,000  Level Chicago Center
Sat 09:32:39 PM 41.5478 -88.5583 270° West 514 592 36,000  Level Chicago Center
Sat 09:33:41 PM 41.5475 -88.7472 270° West 516 594 36,000  Level Chicago Center
Sat 09:34:42 PM 41.5483 -88.9417 270° West 525 604 36,000  Level Chicago Center
Sat 09:35:43 PM 41.5481 -89.1350 270° West 526 605 36,000  Level Chicago Center
Sat 09:36:45 PM 41.5492 -89.3297 271° West 529 609 36,000  Level Chicago Center
Sat 09:37:46 PM 41.5483 -89.5239 270° West 527 606 36,000  Level Chicago Center
Sat 09:38:47 PM 41.5475 -89.7489 270° West 520 598 36,000  Level Chicago Center
Sat 09:39:49 PM 41.5458 -89.9394 269° West 518 596 36,000  Level Chicago Center
Sat 09:40:50 PM 41.5442 -90.1319 269° West 521 600 36,000  Level Chicago Center
Sat 09:41:51 PM 41.5417 -90.3253 269° West 528 608 36,000  Level Chicago Center
Sat 09:42:53 PM 41.5389 -90.5147 269° West 518 596 36,000  Level Chicago Center
Sat 09:43:54 PM 41.5358 -90.7214 269° West 512 589 36,000  Level Chicago Center
Sat 09:44:55 PM 41.5322 -90.9089 269° West 510 587 36,000  Level Chicago Center
Sat 09:45:56 PM 41.5297 -91.0939 269° West 503 579 36,000  Level Chicago Center
Sat 09:46:58 PM 41.5261 -91.2789 269° West 503 579 36,000  Level Chicago Center
Sat 09:47:59 PM 41.5219 -91.4611 268° West 498 573 36,000  Level Chicago Center
Sat 09:49:00 PM 41.5183 -91.6428 269° West 494 568 36,000 -98 Level Chicago Center
Sat 09:50:01 PM 41.5128 -91.8225 268° West 491 565 35,800 -689 Descending Chicago Center
Sat 09:51:02 PM 41.5067 -91.9956 267° West 478 550 34,600 -1,721 Descending Chicago Center
Sat 09:52:03 PM 41.4989 -92.2058 267° West 475 547 32,300 -2,244 Descending Chicago Center
Sat 09:53:05 PM 41.4931 -92.3892 268° West 494 568 30,000 -2,341 Descending Chicago Center
Sat 09:54:06 PM 41.4856 -92.5572 267° West 507 583 27,500 -3,000 Descending Chicago Center
Sat 09:55:07 PM 41.4772 -92.7683 267° West 483 556 23,900 -3,443 Descending Chicago Center
Sat 09:56:08 PM 41.4711 -92.9339 267° West 458 527 20,500 -3,246 Descending Chicago Center
Sat 09:57:09 PM 41.5044 -93.0839 287° West 431 496 17,300 -3,098 Descending Chicago Center
Sat 09:58:10 PM 41.5294 -93.2292 283° West 411 473 14,200 -2,311 Descending Chicago Center
Sat 09:59:11 PM 41.5542 -93.3614 284° West 380 437 12,600 -1,721 Descending Chicago Center
Sat 10:00:12 PM 41.5861 -93.4603 293° West 310 357 10,700 -2,390 Descending Chicago Center
Sat 10:01:14 PM 41.6208 -93.5497 297° West 282 325 7,700 -3,122 Descending Chicago Center
Sat 10:02:15 PM 41.6583 -93.6589 295° West 274 315 4,300 -3,344 Descending Chicago Center

Login

Don't have an account? Register now (free) for customized features, flight alerts, and more!